TJBQ/BQN METAR and TAF weather

Enter ICAO airport designator
Station Type Date Time Source
TJBQ METAR 2020/04/05 20:50 UTC NOAA

TJBQ 052050Z 06010G15KT 10SM BKN017 BKN022 28/ A2996


Station Type Date Time Source
TJBQ Decoded METAR 2020/04/05 20:50 UTC NOAA

Aquadilla, Rafael Hernandez Airport, PR, United States (TJBQ) 18-30N 067-08W 69M
Apr 05, 2020 - 04:50 PM EDT / 2020.04.05 2050 UTC
Wind: from the ENE (060 degrees) at 12 MPH (10 KT) gusting to 17 MPH (15 KT):0
Visibility: 10 mile(s):0
Sky conditions: mostly cloudy
Temperature: 82 F (28 C)
Pressure (altimeter): 29.96 in. Hg (1014 hPa)
ob: TJBQ 052050Z 06010G15KT 10SM BKN017 BKN022 28/ A2996
cycle: 21

Station Type Date Time Source
TJBQ TAF 2020/04/05 18:48 UTC NOAA

TAF TJBQ 051740Z 0518/0618 07015KT P6SM FEW030 FEW070
FM060000 07011KT P6SM VCSH FEW030 SCT070
FM061200 09009KT P6SM FEW030
FM061700 04011KT P6SM FEW030 SCT070
AMD NOT SKED 0602/0611

Example: see airport list